Terminal Aerodrome Forecast
Issued by NWS

Home | Current Version | Previous Version | Text Only | Print | Product List | Glossary On
Versions: 1 2 3 4 5 6 7 8 9 10 11 12 13 14 15 16
000
FTUS43 KJKL 282300
TAFSME
TAF
KSME 282340Z 2900/2924 00000KT P6SM SKC
     FM290500 00000KT 3SM BR SKC
     FM290900 00000KT 1SM BR SKC
     FM291300 VRB03KT P6SM SKC
     FM291800 VRB03KT P6SM VCTS SCT040CB=

USA.gov is the U.S. government's official web portal to all federal, state and local government web resources and services.